Time;durP1;ratioP1;P1;durP2;ratioP2;P2;SDS_P1;SDS_P2;PMS_P1;PMS_P2;Temp;Humidity;BMP_temperature;BMP_pressure;BME280_temperature;BME280_humidity;BME280_pressure;Samples;Min_cycle;Max_cycle;Signal;HPM_P1;HPM_P2
2023/01/09 00:01:00;;;;;;;17.53;10.07;;;3.60;79.90;;;;;;5005398;28;20315;-72
2023/01/09 00:03:26;;;;;;;15.80;9.27;;;3.50;79.90;;;;;;5004479;28;21041;-73
2023/01/09 00:05:53;;;;;;;14.87;9.30;;;3.50;80.10;;;;;;5001062;28;20208;-73
2023/01/09 00:08:19;;;;;;;18.03;10.20;;;3.50;81.20;;;;;;5003577;28;20216;-73
2023/01/09 00:10:45;;;;;;;15.47;10.07;;;3.40;80.90;;;;;;5003899;28;20263;-73
2023/01/09 00:13:12;;;;;;;17.83;8.10;;;3.40;80.60;;;;;;5003209;28;20212;-73
2023/01/09 00:15:39;;;;;;;17.37;9.10;;;3.30;80.20;;;;;;5001531;28;20184;-73
2023/01/09 00:18:04;;;;;;;14.77;8.40;;;3.30;80.50;;;;;;5004783;28;20207;-73
2023/01/09 00:20:30;;;;;;;17.37;8.97;;;3.20;79.50;;;;;;5002508;28;20212;-73
2023/01/09 00:22:56;;;;;;;25.93;8.60;;;3.20;79.30;;;;;;5002883;28;20188;-73
2023/01/09 00:25:22;;;;;;;15.50;7.70;;;3.20;80.30;;;;;;5001089;28;20193;-73
2023/01/09 00:27:47;;;;;;;18.73;9.00;;;3.20;80.70;;;;;;5003033;28;20331;-72
2023/01/09 00:30:13;;;;;;;17.97;8.50;;;3.20;81.00;;;;;;5004429;28;20271;-72
2023/01/09 00:32:39;;;;;;;17.97;9.67;;;3.20;80.80;;;;;;5001548;28;20185;-73
2023/01/09 00:35:06;;;;;;;16.80;9.10;;;3.20;81.20;;;;;;5002710;28;20204;-72
2023/01/09 00:37:31;;;;;;;12.10;8.33;;;3.20;80.90;;;;;;5004804;28;20181;-73
2023/01/09 00:39:57;;;;;;;14.83;7.43;;;3.20;81.30;;;;;;4994715;28;20189;-72
2023/01/09 00:42:27;;;;;;;13.33;8.30;;;3.20;81.40;;;;;;5002542;28;20632;-71
2023/01/09 00:44:56;;;;;;;13.13;7.87;;;3.20;81.40;;;;;;5006217;28;20181;-73
2023/01/09 00:47:27;;;;;;;18.07;7.73;;;3.10;81.30;;;;;;5009361;28;20725;-72
2023/01/09 00:49:54;;;;;;;17.37;7.87;;;3.10;80.40;;;;;;5006996;28;20687;-73
2023/01/09 00:52:21;;;;;;;11.83;6.53;;;3.10;81.30;;;;;;5006610;28;20189;-73
2023/01/09 00:54:47;;;;;;;18.20;8.10;;;3.10;81.30;;;;;;5008588;28;20680;-73
2023/01/09 00:57:13;;;;;;;14.90;8.53;;;3.00;81.10;;;;;;5007225;28;20197;-73
2023/01/09 00:59:40;;;;;;;11.80;8.20;;;2.90;80.10;;;;;;5007560;28;20208;-73
2023/01/09 01:02:06;;;;;;;13.97;8.60;;;2.90;81.50;;;;;;4990659;28;20200;-72
2023/01/09 01:07:40;;;;;;;13.23;6.73;;;2.90;82.20;;;;;;4923496;29;20217;-73
2023/01/09 01:10:15;;;;;;;10.90;7.37;;;2.90;82.20;;;;;;4920857;29;20211;-73
2023/01/09 01:12:41;;;;;;;12.93;7.47;;;2.80;82.10;;;;;;4919041;29;20293;-73
2023/01/09 01:15:08;;;;;;;10.90;7.77;;;2.70;81.20;;;;;;4921495;29;20188;-73
2023/01/09 01:17:36;;;;;;;13.10;7.07;;;2.70;81.70;;;;;;4921064;29;20883;-73
2023/01/09 01:20:04;;;;;;;11.17;7.23;;;2.70;81.60;;;;;;4923736;29;20606;-73
2023/01/09 01:22:30;;;;;;;11.53;7.03;;;2.70;81.70;;;;;;4916303;29;20259;-73
2023/01/09 01:24:56;;;;;;;11.10;6.83;;;2.70;81.40;;;;;;4910159;29;20204;-71
2023/01/09 01:27:21;;;;;;;11.60;6.47;;;2.80;82.10;;;;;;4917837;29;20241;-73
2023/01/09 01:29:47;;;;;;;11.23;7.40;;;2.80;82.10;;;;;;4911576;29;20279;-72
2023/01/09 01:32:13;;;;;;;13.27;7.33;;;2.80;81.90;;;;;;4915071;29;20209;-73
2023/01/09 01:34:38;;;;;;;19.20;7.33;;;2.80;82.20;;;;;;4907992;29;20188;-73
2023/01/09 01:37:04;;;;;;;11.77;7.10;;;2.80;82.50;;;;;;4913262;29;20215;-72
2023/01/09 01:39:30;;;;;;;10.00;5.77;;;2.80;82.60;;;;;;4909801;29;20199;-73
2023/01/09 01:41:56;;;;;;;12.63;7.37;;;2.80;82.60;;;;;;4913755;29;20195;-72
2023/01/09 01:44:59;;;;;;;17.23;7.97;;;2.90;83.20;;;;;;4962605;28;20636;-72
2023/01/09 01:47:34;;;;;;;17.27;6.67;;;2.80;82.60;;;;;;5004972;28;20185;-72
2023/01/09 01:50:03;;;;;;;9.67;6.67;;;2.80;82.50;;;;;;5005542;28;20235;-73
2023/01/09 01:52:33;;;;;;;13.33;6.17;;;2.70;81.70;;;;;;4994413;28;20196;-73
2023/01/09 01:54:59;;;;;;;10.90;7.17;;;2.80;82.60;;;;;;5006649;28;20219;-73
2023/01/09 01:57:25;;;;;;;16.67;7.63;;;2.80;83.00;;;;;;5001869;28;20745;-73
2023/01/09 01:59:54;;;;;;;12.23;6.77;;;2.80;83.70;;;;;;5002118;28;20180;-72
2023/01/09 02:02:23;;;;;;;13.40;7.30;;;2.70;83.30;;;;;;5004080;28;20255;-73
2023/01/09 02:04:52;;;;;;;15.37;6.90;;;2.70;82.90;;;;;;5006832;28;20209;-73
2023/01/09 02:07:18;;;;;;;13.37;7.17;;;2.70;82.50;;;;;;5001143;28;20180;-73
2023/01/09 02:09:43;;;;;;;17.13;6.80;;;2.60;82.20;;;;;;5005467;28;20278;-74
2023/01/09 02:12:16;;;;;;;7.83;6.00;;;2.60;82.30;;;;;;5005506;28;20272;-73
2023/01/09 02:14:43;;;;;;;7.77;6.10;;;2.70;82.90;;;;;;5006541;28;20238;-73
2023/01/09 02:17:15;;;;;;;11.37;6.67;;;2.70;82.90;;;;;;5005742;28;20298;-73
2023/01/09 02:20:08;;;;;;;11.93;6.57;;;2.70;83.00;;;;;;5005576;28;20189;-72
2023/01/09 02:22:54;;;;;;;10.47;6.10;;;2.60;82.50;;;;;;5001914;28;20189;-73
2023/01/09 02:25:47;;;;;;;10.33;6.87;;;2.60;82.60;;;;;;5006285;28;20195;-73
2023/01/09 02:29:05;;;;;;;11.83;5.83;;;2.60;82.00;;;;;;4989789;28;20216;-73
2023/01/09 02:32:15;;;;;;;6.13;5.17;;;2.50;82.80;;;;;;4906624;29;20749;-73
2023/01/09 02:34:58;;;;;;;6.03;4.90;;;2.60;83.40;;;;;;4904200;29;20192;-73
2023/01/09 02:37:42;;;;;;;6.93;4.73;;;2.50;83.20;;;;;;4903395;29;20267;-73
2023/01/09 02:40:13;;;;;;;6.73;5.10;;;2.50;83.70;;;;;;4889576;29;20670;-72
2023/01/09 02:42:41;;;;;;;6.20;4.43;;;2.40;83.20;;;;;;4905862;29;20196;-73
2023/01/09 02:45:07;;;;;;;10.63;5.30;;;2.40;82.50;;;;;;4905884;29;20181;-73
2023/01/09 02:47:45;;;;;;;6.70;4.97;;;2.40;83.90;;;;;;4905332;29;20193;-73
2023/01/09 02:50:18;;;;;;;11.53;5.60;;;2.40;84.20;;;;;;4900286;29;20214;-73
2023/01/09 02:53:21;;;;;;;8.77;5.00;;;2.30;83.70;;;;;;4888811;29;20185;-73
2023/01/09 02:56:16;;;;;;;6.13;4.87;;;2.30;83.80;;;;;;4832662;29;20255;-73
2023/01/09 02:59:02;;;;;;;7.60;5.30;;;2.40;84.00;;;;;;4833993;29;20252;-73
2023/01/09 03:01:52;;;;;;;5.73;4.60;;;2.30;83.40;;;;;;4831660;29;20725;-73
2023/01/09 03:04:37;;;;;;;5.00;3.80;;;2.30;82.90;;;;;;4822996;29;20194;-72
2023/01/09 03:07:08;;;;;;;6.83;5.30;;;2.30;82.70;;;;;;4820870;29;20218;-72
2023/01/09 03:09:39;;;;;;;9.63;6.10;;;2.30;83.50;;;;;;4893893;29;20272;-72
2023/01/09 03:12:12;;;;;;;8.50;6.07;;;2.30;83.40;;;;;;4905484;29;20204;-72
2023/01/09 03:14:42;;;;;;;8.60;4.33;;;2.30;83.90;;;;;;4911112;29;20199;-72
2023/01/09 03:17:11;;;;;;;7.57;4.73;;;2.30;84.00;;;;;;4912210;29;20195;-72
2023/01/09 03:19:37;;;;;;;8.23;4.67;;;2.30;83.80;;;;;;4917479;29;20381;-72
2023/01/09 03:22:03;;;;;;;10.37;6.33;;;2.30;83.60;;;;;;4907113;29;20624;-72
2023/01/09 03:24:29;;;;;;;9.27;5.53;;;2.20;83.10;;;;;;4910340;29;20255;-71
2023/01/09 03:26:55;;;;;;;5.60;4.63;;;2.20;83.90;;;;;;4910576;29;20750;-72
2023/01/09 03:29:21;;;;;;;8.33;5.37;;;2.20;84.00;;;;;;4898088;29;20558;-71
2023/01/09 03:31:46;;;;;;;8.43;4.97;;;2.20;83.60;;;;;;4938533;28;20193;-74
2023/01/09 03:34:12;;;;;;;8.20;5.63;;;2.20;83.60;;;;;;5004014;28;20177;-72
2023/01/09 03:36:38;;;;;;;6.97;5.00;;;2.20;83.30;;;;;;5004243;28;20205;-72
2023/01/09 03:39:03;;;;;;;5.63;5.10;;;2.20;83.20;;;;;;5004685;28;20191;-74
2023/01/09 03:41:29;;;;;;;7.73;5.33;;;2.20;83.20;;;;;;5004772;28;20173;-72
2023/01/09 03:43:54;;;;;;;6.33;5.07;;;2.20;83.30;;;;;;5003979;28;20203;-72
2023/01/09 03:46:20;;;;;;;13.57;5.87;;;2.20;83.20;;;;;;5004054;28;20236;-72
2023/01/09 03:48:46;;;;;;;8.93;5.47;;;2.20;83.20;;;;;;5004871;28;20295;-72
2023/01/09 03:51:11;;;;;;;9.23;5.17;;;2.20;83.40;;;;;;5004159;28;20176;-72
2023/01/09 03:53:38;;;;;;;4.83;4.23;;;2.20;83.60;;;;;;5004242;28;20677;-73
2023/01/09 03:56:04;;;;;;;10.63;5.80;;;2.20;83.30;;;;;;5004089;28;20184;-73
2023/01/09 03:58:30;;;;;;;9.23;5.70;;;2.20;83.20;;;;;;5002603;28;20189;-73
2023/01/09 04:01:01;;;;;;;5.63;5.13;;;2.20;83.00;;;;;;5002019;28;20212;-72
2023/01/09 04:03:26;;;;;;;8.13;5.43;;;2.20;83.40;;;;;;5004428;28;20185;-72
2023/01/09 04:05:52;;;;;;;4.90;4.40;;;2.20;83.70;;;;;;5004725;28;20175;-72
2023/01/09 04:08:18;;;;;;;10.10;5.53;;;2.20;84.00;;;;;;5004200;28;20216;-72
2023/01/09 04:10:48;;;;;;;8.37;5.53;;;2.20;84.00;;;;;;5006631;28;20195;-72
2023/01/09 04:13:14;;;;;;;9.07;5.13;;;2.10;83.90;;;;;;5002684;28;20181;-73
2023/01/09 04:15:41;;;;;;;7.63;4.93;;;2.10;83.50;;;;;;5001652;28;20193;-72
2023/01/09 04:18:06;;;;;;;6.70;5.30;;;2.10;83.20;;;;;;5002932;28;20188;-72
2023/01/09 04:20:32;;;;;;;12.47;5.77;;;2.10;83.40;;;;;;5001892;28;20185;-73
2023/01/09 04:22:58;;;;;;;4.57;3.50;;;2.10;83.50;;;;;;5011693;28;20270;-72
2023/01/09 04:25:25;;;;;;;7.47;4.97;;;2.10;83.50;;;;;;5005706;28;20187;-72
2023/01/09 04:27:51;;;;;;;7.70;5.43;;;2.10;83.70;;;;;;5010621;28;20215;-72
2023/01/09 04:30:16;;;;;;;5.27;4.73;;;2.00;83.40;;;;;;5007213;28;20181;-73
2023/01/09 04:32:42;;;;;;;7.80;4.67;;;2.00;83.40;;;;;;5005572;28;21050;-72
2023/01/09 04:35:08;;;;;;;8.03;5.30;;;2.10;83.30;;;;;;4998960;28;20186;-72
2023/01/09 04:37:35;;;;;;;8.03;5.73;;;2.00;83.40;;;;;;5006274;28;20173;-72
2023/01/09 04:40:06;;;;;;;8.90;6.43;;;2.10;83.60;;;;;;5008460;28;20676;-72
2023/01/09 04:42:32;;;;;;;8.60;6.30;;;2.10;83.60;;;;;;4989625;28;20181;-71
2023/01/09 04:44:58;;;;;;;10.47;6.80;;;2.00;83.40;;;;;;5007848;28;20181;-73
2023/01/09 04:47:23;;;;;;;8.17;5.90;;;2.00;83.50;;;;;;5016243;28;20189;-72
2023/01/09 04:49:49;;;;;;;9.40;5.30;;;2.00;83.40;;;;;;5008229;28;20223;-74
2023/01/09 04:52:15;;;;;;;10.50;5.47;;;2.00;83.50;;;;;;4989643;28;20181;-72
2023/01/09 04:54:41;;;;;;;6.43;5.27;;;2.00;83.60;;;;;;5007393;28;20180;-72
2023/01/09 04:57:06;;;;;;;8.03;5.63;;;2.00;83.80;;;;;;5004251;28;20200;-72
2023/01/09 04:59:32;;;;;;;8.13;5.10;;;2.00;84.20;;;;;;5007306;28;20185;-73
2023/01/09 05:01:58;;;;;;;14.23;5.47;;;2.00;83.80;;;;;;5010440;28;20259;-74
2023/01/09 05:04:24;;;;;;;8.10;5.80;;;2.00;83.80;;;;;;4983769;28;20185;-73
2023/01/09 05:06:50;;;;;;;6.03;5.20;;;2.00;83.70;;;;;;5013773;28;20177;-73
2023/01/09 05:09:16;;;;;;;11.10;5.97;;;2.00;84.30;;;;;;5006989;28;21114;-72
2023/01/09 05:11:41;;;;;;;13.50;5.93;;;2.00;84.30;;;;;;5008487;28;20269;-71
2023/01/09 05:14:07;;;;;;;9.57;6.20;;;1.90;83.90;;;;;;5007196;28;20631;-72
2023/01/09 05:16:33;;;;;;;5.87;5.33;;;1.90;84.00;;;;;;5000855;28;20355;-72
2023/01/09 05:18:59;;;;;;;8.67;5.53;;;1.90;84.00;;;;;;5003489;28;20968;-73
2023/01/09 05:21:25;;;;;;;7.60;5.50;;;1.90;83.90;;;;;;5001209;28;20177;-76
2023/01/09 05:23:51;;;;;;;6.77;4.67;;;1.90;84.50;;;;;;5005146;28;20177;-74
2023/01/09 05:26:22;;;;;;;11.77;5.73;;;1.80;84.20;;;;;;5007271;28;20185;-74
2023/01/09 05:28:57;;;;;;;9.20;5.27;;;1.80;84.50;;;;;;5004749;28;20220;-73
2023/01/09 05:31:25;;;;;;;9.03;5.23;;;1.90;84.90;;;;;;5004243;28;20180;-72
2023/01/09 05:33:51;;;;;;;5.80;5.07;;;1.80;84.90;;;;;;4988322;28;20181;-71
2023/01/09 05:36:16;;;;;;;5.70;5.17;;;1.80;85.00;;;;;;5005889;28;21036;-72
2023/01/09 05:38:42;;;;;;;6.10;5.50;;;1.80;85.50;;;;;;5007761;28;20268;-72
2023/01/09 05:41:08;;;;;;;10.23;5.73;;;1.80;85.60;;;;;;5019329;28;20212;-71
2023/01/09 05:43:34;;;;;;;10.43;6.13;;;1.80;85.00;;;;;;5005394;28;20177;-71
2023/01/09 05:46:00;;;;;;;8.30;6.00;;;1.70;84.40;;;;;;5011169;28;20189;-70
2023/01/09 05:48:25;;;;;;;11.73;6.03;;;1.70;84.70;;;;;;5006501;28;20209;-72
2023/01/09 05:50:51;;;;;;;7.67;5.17;;;1.70;85.10;;;;;;5005292;28;20312;-71
2023/01/09 05:53:17;;;;;;;7.20;5.07;;;1.70;84.40;;;;;;5010594;28;20763;-76
2023/01/09 05:55:43;;;;;;;11.83;6.87;;;1.70;84.70;;;;;;5011909;28;20546;-75
2023/01/09 05:58:08;;;;;;;9.93;6.53;;;1.80;85.20;;;;;;5009145;28;20266;-75
2023/01/09 06:00:34;;;;;;;11.97;5.70;;;1.80;85.20;;;;;;5003459;28;20296;-71
2023/01/09 06:03:00;;;;;;;8.70;5.87;;;1.80;85.10;;;;;;4991713;28;20782;-73
2023/01/09 06:05:25;;;;;;;6.33;5.63;;;1.80;85.40;;;;;;5005101;28;20822;-72
2023/01/09 06:07:51;;;;;;;10.40;5.93;;;1.80;85.30;;;;;;4998351;28;20262;-72
2023/01/09 06:10:16;;;;;;;12.27;7.37;;;1.80;85.30;;;;;;5005427;28;20239;-72
2023/01/09 06:12:46;;;;;;;8.70;5.53;;;1.80;85.30;;;;;;4994642;28;20177;-73
2023/01/09 06:15:14;;;;;;;9.27;5.87;;;1.80;85.40;;;;;;5006614;28;20717;-72
2023/01/09 06:17:40;;;;;;;15.13;6.63;;;1.80;85.60;;;;;;5015302;28;20192;-72
2023/01/09 06:20:06;;;;;;;14.50;7.07;;;1.90;86.20;;;;;;5006479;28;20184;-73
2023/01/09 06:22:32;;;;;;;11.50;6.60;;;1.90;86.30;;;;;;5006131;28;20199;-73
2023/01/09 06:24:58;;;;;;;11.07;6.73;;;1.90;86.30;;;;;;5005380;28;20618;-73
2023/01/09 06:27:23;;;;;;;10.97;6.53;;;1.90;86.60;;;;;;5005894;28;20751;-72
2023/01/09 06:29:49;;;;;;;13.53;7.53;;;1.90;86.80;;;;;;5005792;28;20574;-72
2023/01/09 06:32:15;;;;;;;15.77;6.47;;;1.90;86.50;;;;;;5005092;28;20690;-72
2023/01/09 06:34:40;;;;;;;11.07;7.07;;;2.00;86.90;;;;;;5003879;28;20169;-73
2023/01/09 06:37:06;;;;;;;17.63;8.40;;;2.00;87.20;;;;;;5000318;28;20952;-73
2023/01/09 06:39:32;;;;;;;13.10;8.13;;;2.00;87.50;;;;;;5006255;28;20255;-72
2023/01/09 06:41:57;;;;;;;11.23;7.30;;;2.10;87.90;;;;;;5010289;28;20181;-74
2023/01/09 06:44:23;;;;;;;15.33;7.60;;;2.10;87.40;;;;;;5018780;28;20177;-74
2023/01/09 06:46:49;;;;;;;8.77;7.60;;;2.20;87.50;;;;;;5006053;28;20181;-73
2023/01/09 06:49:16;;;;;;;9.13;7.97;;;2.30;88.10;;;;;;4992863;28;20211;-72
2023/01/09 06:51:42;;;;;;;9.67;7.03;;;2.50;88.30;;;;;;5000837;28;20192;-73
2023/01/09 06:54:08;;;;;;;11.00;8.37;;;2.70;88.80;;;;;;4993037;28;20177;-74
2023/01/09 06:56:33;;;;;;;12.70;8.47;;;3.00;89.00;;;;;;5005540;28;20185;-74
2023/01/09 06:59:00;;;;;;;15.50;8.77;;;3.20;89.10;;;;;;5011587;28;20246;-73
2023/01/09 07:01:26;;;;;;;23.83;9.13;;;3.50;89.10;;;;;;4982012;28;20189;-74
2023/01/09 07:03:51;;;;;;;13.33;8.73;;;3.70;88.80;;;;;;5006100;28;20169;-73
2023/01/09 07:06:18;;;;;;;13.77;9.27;;;3.90;88.60;;;;;;5005931;28;20181;-73
2023/01/09 07:08:44;;;;;;;13.37;8.77;;;4.20;88.40;;;;;;5018431;28;20465;-73
2023/01/09 07:11:10;;;;;;;15.17;7.93;;;4.60;88.40;;;;;;4975613;28;20197;-73
2023/01/09 07:13:37;;;;;;;15.93;8.47;;;4.90;88.20;;;;;;5022501;28;20173;-72
2023/01/09 07:16:04;;;;;;;14.87;9.97;;;5.30;87.40;;;;;;5012764;28;20966;-73
2023/01/09 07:18:30;;;;;;;16.47;10.27;;;5.70;87.10;;;;;;4993897;28;20180;-72
2023/01/09 07:20:56;;;;;;;14.97;10.13;;;6.20;86.60;;;;;;5012125;28;20263;-73
2023/01/09 07:23:21;;;;;;;20.23;10.03;;;6.70;85.90;;;;;;5010790;28;20688;-73
2023/01/09 07:25:49;;;;;;;20.47;10.67;;;7.10;85.00;;;;;;5012064;28;20272;-73
2023/01/09 07:28:15;;;;;;;22.27;11.73;;;7.50;83.70;;;;;;5000905;28;20655;-73
2023/01/09 07:30:41;;;;;;;17.13;11.23;;;7.90;81.00;;;;;;5005539;28;20173;-73
2023/01/09 07:33:07;;;;;;;14.73;10.83;;;8.20;80.60;;;;;;4992433;28;20185;-73
2023/01/09 07:35:32;;;;;;;21.53;11.90;;;8.60;79.20;;;;;;5004291;28;20618;-73
2023/01/09 07:37:58;;;;;;;23.07;12.47;;;8.90;79.80;;;;;;5003171;28;20196;-74
2023/01/09 07:40:24;;;;;;;18.50;11.27;;;9.30;79.20;;;;;;5004899;28;20577;-73
2023/01/09 07:42:52;;;;;;;20.87;11.97;;;9.80;78.80;;;;;;5010518;28;20246;-72
2023/01/09 07:45:17;;;;;;;21.58;12.20;;;10.20;78.10;;;;;;5011147;28;20181;-75
2023/01/09 07:47:43;;;;;;;20.23;12.85;;;10.60;76.30;;;;;;5004911;28;20180;-72
2023/01/09 07:50:09;;;;;;;25.65;13.25;;;11.00;73.80;;;;;;5004911;28;20738;-73
2023/01/09 07:52:35;;;;;;;21.80;12.18;;;11.30;74.10;;;;;;5005407;28;20185;-72
2023/01/09 07:55:01;;;;;;;17.77;11.10;;;11.70;73.00;;;;;;5004297;28;21023;-72
2023/01/09 07:57:28;;;;;;;21.48;12.60;;;12.10;72.30;;;;;;5004683;28;20657;-72
2023/01/09 07:59:54;;;;;;;19.20;12.10;;;12.50;72.40;;;;;;5004922;28;20287;-73
2023/01/09 08:02:19;;;;;;;19.95;12.45;;;12.80;70.70;;;;;;5011479;28;20291;-72
2023/01/09 08:04:45;;;;;;;19.52;12.10;;;12.90;69.40;;;;;;5012521;28;20862;-72
2023/01/09 08:07:11;;;;;;;18.15;12.52;;;12.90;68.40;;;;;;4996379;28;20664;-72
2023/01/09 08:09:37;;;;;;;21.40;12.90;;;12.80;67.50;;;;;;5003410;28;20243;-72
2023/01/09 08:12:03;;;;;;;17.70;11.90;;;12.70;67.50;;;;;;5016959;28;20247;-72
2023/01/09 08:14:29;;;;;;;16.75;11.68;;;12.40;67.10;;;;;;5004398;28;20188;-73
2023/01/09 08:16:54;;;;;;;24.10;13.32;;;12.10;67.50;;;;;;5005143;28;20847;-74
2023/01/09 08:19:20;;;;;;;20.65;12.98;;;12.00;68.50;;;;;;5017727;28;20188;-73
2023/01/09 08:21:46;;;;;;;21.15;13.02;;;11.90;69.20;;;;;;5004474;28;20181;-74
2023/01/09 08:24:11;;;;;;;29.08;16.52;;;12.00;69.20;;;;;;4991351;28;20791;-73
2023/01/09 08:26:37;;;;;;;28.77;18.73;;;12.00;69.20;;;;;;5003734;28;20606;-72
2023/01/09 08:29:03;;;;;;;33.67;18.10;;;12.20;69.10;;;;;;4998600;28;20209;-73
2023/01/09 08:31:28;;;;;;;32.33;19.15;;;12.30;68.40;;;;;;5004002;28;20181;-72
2023/01/09 08:33:54;;;;;;;34.83;19.20;;;12.30;68.70;;;;;;4999431;28;20216;-72
2023/01/09 08:36:19;;;;;;;31.10;19.30;;;12.40;68.60;;;;;;5001669;28;20221;-74
2023/01/09 08:38:45;;;;;;;36.95;21.77;;;12.60;68.60;;;;;;5004291;28;20239;-74
2023/01/09 08:49:24;;;;;;;46.50;27.77;;;13.30;67.10;;;;;;4991893;28;20227;-74
2023/01/09 08:51:50;;;;;;;51.20;29.25;;;13.50;67.60;;;;;;5003540;28;20189;-74
2023/01/09 08:54:15;;;;;;;51.20;29.48;;;13.90;66.60;;;;;;5003612;28;20205;-73
2023/01/09 08:56:41;;;;;;;50.05;28.90;;;14.20;66.20;;;;;;5016920;28;20177;-72
2023/01/09 08:59:08;;;;;;;47.60;28.90;;;14.50;65.50;;;;;;4999711;28;20185;-74
2023/01/09 09:01:33;;;;;;;49.63;29.48;;;14.90;64.20;;;;;;5016771;28;20200;-72
2023/01/09 09:04:00;;;;;;;59.30;30.58;;;15.10;63.50;;;;;;5004434;28;20192;-72
2023/01/09 09:06:25;;;;;;;50.90;29.67;;;15.30;63.10;;;;;;5007675;28;20769;-74
2023/01/09 09:08:51;;;;;;;53.30;30.35;;;15.40;62.80;;;;;;5013667;28;20213;-72
2023/01/09 09:11:16;;;;;;;50.05;29.58;;;15.30;60.90;;;;;;5014464;28;20642;-72
2023/01/09 09:13:42;;;;;;;48.03;28.77;;;15.40;63.00;;;;;;5003718;28;20646;-73
2023/01/09 09:16:08;;;;;;;45.45;28.20;;;15.60;62.20;;;;;;5005481;28;20196;-73
2023/01/09 09:18:33;;;;;;;41.72;25.17;;;16.00;62.10;;;;;;5019333;28;20185;-71
2023/01/09 09:20:59;;;;;;;43.58;25.52;;;16.20;61.40;;;;;;5002543;28;20251;-74
2023/01/09 09:23:25;;;;;;;36.15;21.75;;;16.50;61.50;;;;;;5019683;28;20199;-74
2023/01/09 09:25:50;;;;;;;30.38;20.42;;;16.80;61.20;;;;;;5007250;28;20191;-74
2023/01/09 09:28:16;;;;;;;32.63;19.35;;;17.00;60.50;;;;;;5005678;28;20221;-74
2023/01/09 09:30:42;;;;;;;32.05;20.40;;;17.20;60.00;;;;;;5007628;28;20255;-74
2023/01/09 09:33:07;;;;;;;28.95;16.55;;;17.40;59.90;;;;;;5006182;28;20184;-73
2023/01/09 09:35:33;;;;;;;25.00;16.42;;;17.60;59.20;;;;;;5007267;28;20188;-72
2023/01/09 09:38:01;;;;;;;23.77;14.75;;;17.90;59.20;;;;;;5009560;28;20189;-72
2023/01/09 09:40:52;;;;;;;17.75;10.07;;;18.20;59.10;;;;;;4986909;28;20189;-75
2023/01/09 09:46:26;;;;;;;13.60;10.50;;;17.80;58.30;;;;;;4944814;29;20222;-72
2023/01/09 09:49:01;;;;;;;15.75;10.80;;;17.80;58.40;;;;;;4942856;28;20225;-73
2023/01/09 09:51:45;;;;;;;13.90;10.00;;;17.90;58.70;;;;;;4931324;29;20194;-73
2023/01/09 09:54:39;;;;;;;9.85;7.97;;;18.10;57.90;;;;;;4939547;28;20191;-75
2023/01/09 09:57:09;;;;;;;13.85;10.10;;;18.40;57.50;;;;;;4940544;28;20203;-74
2023/01/09 09:59:37;;;;;;;12.75;9.85;;;18.60;57.20;;;;;;4945847;29;20294;-72
2023/01/09 10:02:09;;;;;;;12.52;9.57;;;18.80;56.60;;;;;;4945425;28;20203;-72
2023/01/09 10:04:41;;;;;;;10.15;9.13;;;19.00;55.80;;;;;;4940216;28;20731;-73
2023/01/09 10:07:19;;;;;;;9.57;8.18;;;19.10;55.10;;;;;;4939455;29;20198;-74
2023/01/09 10:09:50;;;;;;;11.20;9.15;;;19.10;56.40;;;;;;4940091;28;20227;-73
2023/01/09 10:12:55;;;;;;;12.07;8.10;;;19.20;55.20;;;;;;4944939;28;20253;-73
2023/01/09 10:15:32;;;;;;;11.45;7.57;;;19.30;54.50;;;;;;4945137;28;20201;-74
2023/01/09 10:18:39;;;;;;;10.65;8.65;;;19.40;55.30;;;;;;4945401;28;20238;-72
2023/01/09 10:21:31;;;;;;;11.85;9.13;;;19.30;54.90;;;;;;4918564;29;20207;-74
2023/01/09 10:24:13;;;;;;;12.48;10.07;;;19.20;55.70;;;;;;4951871;28;20649;-72
2023/01/09 10:26:40;;;;;;;12.57;9.65;;;18.90;55.40;;;;;;4948625;28;21942;-75
2023/01/09 10:29:26;;;;;;;14.57;10.48;;;18.80;55.90;;;;;;4936709;28;20254;-74
2023/01/09 10:32:03;;;;;;;14.07;9.57;;;18.40;55.10;;;;;;4956566;28;20194;-72
2023/01/09 10:34:57;;;;;;;11.48;8.90;;;18.30;56.50;;;;;;4941449;28;20195;-74
2023/01/09 10:37:29;;;;;;;12.85;9.38;;;18.40;56.90;;;;;;4940851;28;20293;-74
2023/01/09 10:40:21;;;;;;;10.15;8.85;;;18.70;57.10;;;;;;4929155;29;20352;-73
2023/01/09 10:42:52;;;;;;;11.32;9.20;;;19.20;55.80;;;;;;4885498;29;20280;-73
2023/01/09 10:45:35;;;;;;;13.25;10.18;;;19.40;55.20;;;;;;4887339;29;20261;-78
2023/01/09 10:48:17;;;;;;;11.13;8.65;;;19.60;54.80;;;;;;4871417;29;20897;-74
2023/01/09 10:50:44;;;;;;;12.45;9.13;;;19.60;55.00;;;;;;4898384;29;20193;-74
2023/01/09 10:53:26;;;;;;;11.20;8.73;;;19.70;54.10;;;;;;4889424;29;20232;-73
2023/01/09 10:55:59;;;;;;;10.55;8.40;;;19.40;54.70;;;;;;4880652;29;20248;-74
2023/01/09 10:58:25;;;;;;;8.27;7.47;;;19.20;54.30;;;;;;4905683;29;20294;-72
2023/01/09 11:00:51;;;;;;;10.85;7.93;;;18.80;54.90;;;;;;4918935;29;20290;-75
2023/01/09 11:03:19;;;;;;;8.90;6.88;;;18.50;54.70;;;;;;4907668;29;20195;-74
2023/01/09 11:05:57;;;;;;;9.88;7.18;;;18.10;56.00;;;;;;4906038;29;20191;-73
2023/01/09 11:08:28;;;;;;;8.88;7.72;;;17.80;56.70;;;;;;4901188;29;20238;-74
2023/01/09 11:10:56;;;;;;;8.90;7.18;;;17.80;57.40;;;;;;4905974;29;20196;-74
2023/01/09 11:13:31;;;;;;;8.05;6.35;;;17.80;57.40;;;;;;4922123;29;20278;-73
2023/01/09 11:16:09;;;;;;;8.45;6.95;;;18.00;57.30;;;;;;4895447;29;20184;-73
2023/01/09 11:18:39;;;;;;;9.75;6.78;;;18.20;57.30;;;;;;4907420;28;20239;-74
2023/01/09 11:21:26;;;;;;;6.35;5.63;;;18.30;57.30;;;;;;5021331;28;20184;-74
2023/01/09 11:23:52;;;;;;;7.82;6.55;;;18.50;56.10;;;;;;5005014;28;20193;-73
2023/01/09 11:26:27;;;;;;;8.20;6.57;;;18.50;55.00;;;;;;5004015;28;20169;-74
2023/01/09 11:29:14;;;;;;;7.15;6.20;;;18.40;56.10;;;;;;5001206;28;20626;-74
2023/01/09 11:31:41;;;;;;;7.82;6.28;;;18.20;56.00;;;;;;5004038;28;21016;-74
2023/01/09 11:34:19;;;;;;;8.23;6.30;;;17.80;55.50;;;;;;5003632;28;20721;-73
2023/01/09 11:36:46;;;;;;;9.85;6.88;;;17.20;57.00;;;;;;4999237;28;20199;-74
2023/01/09 11:39:27;;;;;;;7.63;6.78;;;16.80;57.30;;;;;;5000161;28;20272;-73
2023/01/09 11:42:01;;;;;;;8.73;6.72;;;16.50;57.80;;;;;;4997960;28;20189;-74
2023/01/09 11:44:29;;;;;;;9.65;6.18;;;16.20;58.10;;;;;;5001004;28;20505;-75
2023/01/09 11:46:55;;;;;;;5.82;5.22;;;15.90;57.90;;;;;;5001449;28;20569;-74
2023/01/09 11:49:27;;;;;;;8.90;6.20;;;15.60;58.90;;;;;;5005302;28;20215;-74
2023/01/09 11:52:14;;;;;;;10.32;6.30;;;15.40;58.90;;;;;;5000742;28;20189;-74
2023/01/09 11:55:03;;;;;;;10.55;7.35;;;15.00;59.70;;;;;;4995106;28;20224;-72
2023/01/09 11:57:30;;;;;;;7.13;5.85;;;14.90;60.20;;;;;;5013138;28;20674;-74
2023/01/09 12:00:09;;;;;;;8.57;6.07;;;14.60;60.50;;;;;;5003261;28;20650;-72
2023/01/09 12:03:27;;;;;;;9.82;6.43;;;14.60;60.80;;;;;;5005767;28;20196;-73
2023/01/09 12:06:21;;;;;;;7.72;5.82;;;14.70;60.90;;;;;;4946146;28;20198;-75
2023/01/09 12:09:03;;;;;;;8.10;6.03;;;14.80;61.00;;;;;;4943572;28;20235;-73
2023/01/09 12:11:41;;;;;;;6.47;5.88;;;14.90;60.70;;;;;;4949366;28;20205;-73
2023/01/09 12:14:35;;;;;;;9.68;6.80;;;14.90;60.70;;;;;;4943572;28;20201;-74
2023/01/09 12:17:36;;;;;;;6.72;5.53;;;14.80;60.60;;;;;;4944348;28;20696;-73
2023/01/09 12:20:24;;;;;;;9.95;6.38;;;14.60;60.90;;;;;;4942381;28;20277;-74
2023/01/09 12:23:02;;;;;;;6.82;5.90;;;14.50;61.60;;;;;;4942555;28;20589;-74
2023/01/09 12:25:51;;;;;;;13.50;6.68;;;14.60;61.90;;;;;;4945406;28;20273;-74
2023/01/09 12:28:51;;;;;;;11.38;6.97;;;14.90;61.50;;;;;;4942802;28;20218;-73
2023/01/09 12:31:34;;;;;;;10.35;6.63;;;15.00;61.50;;;;;;4942230;29;20183;-73
2023/01/09 12:34:14;;;;;;;11.02;6.88;;;15.30;61.00;;;;;;4945260;28;20186;-73
2023/01/09 12:36:58;;;;;;;8.32;6.63;;;15.40;60.50;;;;;;4977681;28;20220;-73
2023/01/09 12:39:53;;;;;;;9.43;6.28;;;15.50;60.30;;;;;;5001973;28;20215;-73
2023/01/09 12:42:40;;;;;;;8.88;6.10;;;15.50;59.80;;;;;;4949112;28;20199;-72
2023/01/09 12:45:31;;;;;;;8.57;6.85;;;15.10;59.80;;;;;;4941282;28;20230;-72
2023/01/09 12:48:07;;;;;;;8.32;6.45;;;14.70;60.70;;;;;;4885032;29;20197;-73
2023/01/09 12:51:08;;;;;;;8.35;6.32;;;14.50;60.80;;;;;;4888816;29;20855;-73
2023/01/09 12:53:41;;;;;;;9.07;6.60;;;14.20;61.40;;;;;;4883511;29;20201;-73
2023/01/09 12:56:22;;;;;;;7.97;5.90;;;13.80;62.10;;;;;;4888651;29;20185;-73
2023/01/09 12:58:53;;;;;;;8.18;5.40;;;13.60;62.70;;;;;;4871748;29;20297;-73
2023/01/09 13:01:39;;;;;;;6.90;6.15;;;13.50;62.50;;;;;;4888320;29;20675;-73
2023/01/09 13:04:26;;;;;;;8.48;6.40;;;13.40;62.50;;;;;;4888639;29;20652;-73
2023/01/09 13:07:09;;;;;;;9.07;6.20;;;13.30;63.10;;;;;;4887469;29;20209;-73
2023/01/09 13:09:48;;;;;;;8.98;6.35;;;13.20;63.20;;;;;;4889510;29;20661;-75
2023/01/09 13:12:20;;;;;;;10.02;5.57;;;13.00;63.60;;;;;;4886457;29;20344;-72
2023/01/09 13:14:52;;;;;;;8.25;5.53;;;12.90;63.50;;;;;;4886787;29;20200;-73
2023/01/09 13:17:42;;;;;;;8.40;6.00;;;12.90;63.80;;;;;;4887622;29;20193;-72
2023/01/09 13:20:23;;;;;;;8.82;5.47;;;12.70;63.90;;;;;;4928510;29;20214;-74